Tuesday, July 17, 2018, 1:25 AM EDT
Back to Local

KIPT, Williamsport-lycoming County

Location: Montoursville, PA, United States Lat: 41.25
Local Time: 1:25 AM EDT ( 5:25 GMT) Lon: -76.917
Time Zone: US/Eastern Elev: 528 ft

Show me the last for .
Show Decoded

2018-07-17 00:54 METAR KIPT 170454Z AUTO 00000KT 10SM CLR 24/21 A2987 RMK AO2 SLP109 T02440206
                 403330211 =
2018-07-16 23:54 METAR KIPT 170354Z AUTO 23004KT 10SM CLR 24/21 A2987 RMK AO2 SLP111 T02440211 =
2018-07-16 22:54 METAR KIPT 170254Z AUTO 00000KT 10SM CLR 27/20 A2988 RMK AO2 SLP113 T02670200
                 53009 =
2018-07-16 21:54 METAR KIPT 170154Z 26003KT 10SM SCT055 27/22 A2987 RMK AO2 LTG DSNT N AND NW
                 SLP109 T02720222 =
2018-07-16 20:54 METAR KIPT 170054Z 00000KT 10SM CLR 28/23 A2986 RMK AO2 LTG DSNT W SLP105
                 T02780228 =
2018-07-16 19:54 METAR KIPT 162354Z 00000KT 10SM CLR 30/23 A2985 RMK AO2 SLP104 T03000228 10333
                 20300 56005 =
2018-07-16 18:54 METAR KIPT 162254Z 17006KT 10SM CLR 32/21 A2985 RMK AO2 SLP104 T03170211 =
2018-07-16 17:54 METAR KIPT 162154Z VRB05KT 10SM CLR 32/21 A2986 RMK AO2 SLP106 T03220211 =
2018-07-16 15:54 METAR KIPT 161954Z 18006G17KT 10SM SCT035 33/22 A2989 RMK AO2 SLP116 T03330222 =
2018-07-16 14:54 METAR KIPT 161854Z 18008KT 10SM CLR 32/22 A2991 RMK AO2 SLP122 T03220222 =
2018-07-16 13:54 METAR KIPT 161754Z 19008KT 10SM FEW038 32/22 A2994 RMK AO2 SLP132 T03170217
                 10322 20233 58016 =
2018-07-16 12:54 METAR KIPT 161654Z VRB03KT 10SM FEW060 31/22 A2996 RMK AO2 SLP140 T03110222 =
2018-07-16 11:54 METAR KIPT 161554Z 12005KT 10SM FEW040 29/22 A2997 RMK AO2 SLP144 T02940222 =
2018-07-16 10:54 METAR KIPT 161454Z VRB03KT 10SM CLR 28/20 A2998 RMK AO2 SLP149 T02830200 58008 =
2018-07-16 10:01 METAR KIPT 161401Z 00000KT 10SM FEW015 27/22 A3000 RMK AO2 T02670217 =
2018-07-16 09:54 METAR KIPT 161354Z 00000KT 10SM BKN013 26/21 A3000 RMK AO2 SLP155 T02610211 =
2018-07-16 09:27 METAR KIPT 161327Z 00000KT 10SM BKN013 26/22 A3000 RMK AO2 T02610217 =
2018-07-16 09:03 METAR KIPT 161303Z 00000KT 10SM FEW011 24/21 A3000 RMK AO2 T02440211 =
2018-07-16 08:54 METAR KIPT 161254Z 00000KT 10SM BKN011 25/21 A3000 RMK AO2 SLP154 T02500211 =
2018-07-16 08:46 METAR KIPT 161246Z 00000KT 10SM SCT009 25/21 A3000 RMK AO2 T02500211 =
2018-07-16 07:54 METAR KIPT 161154Z 00000KT 6SM BR OVC007 23/21 A3001 RMK AO2 SLP157 70007
                 T02330211 10233 20211 53007 =
2018-07-16 07:25 METAR KIPT 161125Z 00000KT 7SM OVC006 23/21 A3000 RMK AO2 T02280211 =
2018-07-16 06:54 METAR KIPT 161054Z 00000KT 5SM BR OVC005 22/21 A3000 RMK AO2 SLP154 T02220206 =
2018-07-16 06:27 METAR KIPT 161027Z 00000KT 3SM BR OVC005 22/21 A3000 RMK AO2 T02170206 =
2018-07-16 06:16 METAR KIPT 161016Z 00000KT 2SM BR BKN006 22/21 A2999 RMK AO2 T02170206 =
2018-07-16 06:08 METAR KIPT 161008Z 34003KT 3SM BR BKN006 22/21 A2999 RMK AO2 T02170206 =
2018-07-16 05:54 METAR KIPT 160954Z 33003KT 5SM BR SCT006 21/20 A2999 RMK AO2 SLP151 T02110200 =
2018-07-16 05:17 METAR KIPT 160917Z 00000KT 8SM SCT006 SCT100 BKN120 22/21 A2998 RMK AO2
                 T02170206 =
2018-07-16 05:02 METAR KIPT 160902Z 00000KT 7SM BKN006 OVC110 22/21 A2998 RMK AO2 T02170206 =
2018-07-16 04:54 METAR KIPT 160854Z 00000KT 7SM BKN005 OVC100 22/21 A2999 RMK AO2 SLP149
                 T02170206 53002 =
2018-07-16 04:15 METAR KIPT 160815Z 00000KT 9SM BKN005 OVC120 22/21 A2998 RMK AO2 T02220206 =
2018-07-16 03:54 METAR KIPT 160754Z 35003KT 9SM OVC004 22/21 A2998 RMK AO2 SLP148 T02220206 =
2018-07-16 03:38 METAR KIPT 160738Z 00000KT 10SM OVC004 22/21 A2998 RMK AO2 T02220206 =
2018-07-16 03:08 METAR KIPT 160708Z 00000KT 10SM BKN005 BKN110 22/21 A2998 RMK AO2 T02220206 =
2018-07-16 02:54 METAR KIPT 160654Z 00000KT 10SM FEW005 SCT110 23/21 A2998 RMK AO2 SLP148
                 T02280206 =
2018-07-16 01:54 METAR KIPT 160554Z 00000KT 10SM CLR 23/21 A2998 RMK AO2 SLP148 T02280211 10278
                 20228 58001 =

Support USWX by starting your Amazon purchase here.